Terminal Aerodrome Forecast
Issued by NWS

Home | Current Version | Previous Version | Text Only | Print | Product List | Glossary Off
Versions: 1 2 3 4 5 6 7 8 9 10 11 12 13 14 15 16 17 18

000
FTUS43 KUNR 092300
TAFGCC
TAF
KGCC 092320Z 1000/1024 13008KT P6SM SCT080
     FM100900 16012KT P6SM BKN080 PROB30 1009/1012 -TSRA BKN060CB
     FM101400 34014KT P6SM BKN100=

USA.gov is the U.S. government's official web portal to all federal, state and local government web resources and services.